sensor_id;sensor_type;location;lat;lon;timestamp;P1;durP1;ratioP1;P2;durP2;ratioP2
17852;SDS011;9052;53.494;14.376;2023-04-12T00:01:00;1.30;;;1.20;;
17852;SDS011;9052;53.494;14.376;2023-04-12T00:03:27;1.83;;;1.30;;
17852;SDS011;9052;53.494;14.376;2023-04-12T00:05:54;9.17;;;1.80;;
17852;SDS011;9052;53.494;14.376;2023-04-12T00:08:22;1.77;;;1.67;;
17852;SDS011;9052;53.494;14.376;2023-04-12T00:10:57;2.57;;;1.87;;
17852;SDS011;9052;53.494;14.376;2023-04-12T00:13:23;11.77;;;1.70;;
17852;SDS011;9052;53.494;14.376;2023-04-12T00:15:50;3.27;;;1.63;;
17852;SDS011;9052;53.494;14.376;2023-04-12T00:18:16;5.97;;;1.90;;
17852;SDS011;9052;53.494;14.376;2023-04-12T00:20:43;5.27;;;2.30;;
17852;SDS011;9052;53.494;14.376;2023-04-12T00:23:09;1.90;;;1.57;;
17852;SDS011;9052;53.494;14.376;2023-04-12T00:25:38;4.77;;;2.70;;
17852;SDS011;9052;53.494;14.376;2023-04-12T00:28:04;6.07;;;2.37;;
17852;SDS011;9052;53.494;14.376;2023-04-12T00:30:31;6.03;;;2.10;;
17852;SDS011;9052;53.494;14.376;2023-04-12T00:32:57;1.40;;;1.30;;
17852;SDS011;9052;53.494;14.376;2023-04-12T00:35:24;2.83;;;1.80;;
17852;SDS011;9052;53.494;14.376;2023-04-12T00:37:50;6.47;;;2.90;;
17852;SDS011;9052;53.494;14.376;2023-04-12T00:40:17;1.63;;;1.53;;
17852;SDS011;9052;53.494;14.376;2023-04-12T00:42:44;4.53;;;2.67;;
17852;SDS011;9052;53.494;14.376;2023-04-12T00:45:11;5.23;;;2.00;;
17852;SDS011;9052;53.494;14.376;2023-04-12T00:47:37;5.80;;;1.97;;
17852;SDS011;9052;53.494;14.376;2023-04-12T00:50:04;3.67;;;2.87;;
17852;SDS011;9052;53.494;14.376;2023-04-12T00:52:32;3.13;;;2.00;;
17852;SDS011;9052;53.494;14.376;2023-04-12T00:54:59;8.73;;;2.40;;
17852;SDS011;9052;53.494;14.376;2023-04-12T00:57:26;5.37;;;2.37;;
17852;SDS011;9052;53.494;14.376;2023-04-12T00:59:54;5.67;;;2.40;;
17852;SDS011;9052;53.494;14.376;2023-04-12T01:02:20;6.00;;;3.07;;
17852;SDS011;9052;53.494;14.376;2023-04-12T01:04:47;3.00;;;2.23;;
17852;SDS011;9052;53.494;14.376;2023-04-12T01:07:17;6.67;;;3.17;;
17852;SDS011;9052;53.494;14.376;2023-04-12T01:09:49;6.80;;;2.63;;
17852;SDS011;9052;53.494;14.376;2023-04-12T01:12:19;7.83;;;3.30;;
17852;SDS011;9052;53.494;14.376;2023-04-12T01:14:50;6.83;;;3.47;;
17852;SDS011;9052;53.494;14.376;2023-04-12T01:17:20;5.50;;;3.63;;
17852;SDS011;9052;53.494;14.376;2023-04-12T01:19:52;9.00;;;3.70;;
17852;SDS011;9052;53.494;14.376;2023-04-12T01:22:27;11.57;;;3.20;;
17852;SDS011;9052;53.494;14.376;2023-04-12T01:25:00;8.43;;;3.27;;
17852;SDS011;9052;53.494;14.376;2023-04-12T01:27:32;8.20;;;3.93;;
17852;SDS011;9052;53.494;14.376;2023-04-12T01:30:01;5.70;;;3.77;;
17852;SDS011;9052;53.494;14.376;2023-04-12T01:32:28;5.20;;;3.10;;
17852;SDS011;9052;53.494;14.376;2023-04-12T01:34:55;6.90;;;3.00;;
17852;SDS011;9052;53.494;14.376;2023-04-12T01:37:23;7.50;;;3.30;;
17852;SDS011;9052;53.494;14.376;2023-04-12T01:39:49;4.13;;;2.93;;
17852;SDS011;9052;53.494;14.376;2023-04-12T01:42:17;8.33;;;2.90;;
17852;SDS011;9052;53.494;14.376;2023-04-12T01:44:45;3.87;;;2.80;;
17852;SDS011;9052;53.494;14.376;2023-04-12T01:47:11;9.13;;;3.40;;
17852;SDS011;9052;53.494;14.376;2023-04-12T01:49:40;7.90;;;3.70;;
17852;SDS011;9052;53.494;14.376;2023-04-12T01:52:10;4.83;;;3.20;;
17852;SDS011;9052;53.494;14.376;2023-04-12T01:54:37;9.83;;;3.63;;
17852;SDS011;9052;53.494;14.376;2023-04-12T01:57:06;9.50;;;3.40;;
17852;SDS011;9052;53.494;14.376;2023-04-12T01:59:34;10.63;;;3.90;;
17852;SDS011;9052;53.494;14.376;2023-04-12T02:02:03;6.67;;;3.80;;
17852;SDS011;9052;53.494;14.376;2023-04-12T02:04:30;10.10;;;3.97;;
17852;SDS011;9052;53.494;14.376;2023-04-12T02:06:56;8.07;;;3.57;;
17852;SDS011;9052;53.494;14.376;2023-04-12T02:09:23;9.33;;;3.87;;
17852;SDS011;9052;53.494;14.376;2023-04-12T02:11:49;5.27;;;3.73;;
17852;SDS011;9052;53.494;14.376;2023-04-12T02:14:16;6.47;;;3.80;;
17852;SDS011;9052;53.494;14.376;2023-04-12T02:16:43;5.30;;;3.87;;
17852;SDS011;9052;53.494;14.376;2023-04-12T02:19:11;5.97;;;4.57;;
17852;SDS011;9052;53.494;14.376;2023-04-12T02:21:38;8.63;;;4.40;;
17852;SDS011;9052;53.494;14.376;2023-04-12T02:24:05;6.00;;;3.50;;
17852;SDS011;9052;53.494;14.376;2023-04-12T02:26:31;6.13;;;5.63;;
17852;SDS011;9052;53.494;14.376;2023-04-12T02:28:58;7.40;;;4.33;;
17852;SDS011;9052;53.494;14.376;2023-04-12T02:31:24;7.47;;;4.10;;
17852;SDS011;9052;53.494;14.376;2023-04-12T02:33:51;5.30;;;3.87;;
17852;SDS011;9052;53.494;14.376;2023-04-12T02:36:19;5.40;;;4.07;;
17852;SDS011;9052;53.494;14.376;2023-04-12T02:38:46;14.73;;;4.60;;
17852;SDS011;9052;53.494;14.376;2023-04-12T02:41:15;15.40;;;4.30;;
17852;SDS011;9052;53.494;14.376;2023-04-12T02:43:42;10.93;;;4.40;;
17852;SDS011;9052;53.494;14.376;2023-04-12T02:46:08;5.43;;;3.73;;
17852;SDS011;9052;53.494;14.376;2023-04-12T02:48:37;5.73;;;3.60;;
17852;SDS011;9052;53.494;14.376;2023-04-12T02:51:04;7.50;;;3.77;;
17852;SDS011;9052;53.494;14.376;2023-04-12T02:53:32;7.40;;;4.33;;
17852;SDS011;9052;53.494;14.376;2023-04-12T02:55:58;5.80;;;4.70;;
17852;SDS011;9052;53.494;14.376;2023-04-12T02:58:25;12.10;;;5.10;;
17852;SDS011;9052;53.494;14.376;2023-04-12T03:00:52;7.40;;;4.10;;
17852;SDS011;9052;53.494;14.376;2023-04-12T03:03:19;11.50;;;3.53;;
17852;SDS011;9052;53.494;14.376;2023-04-12T03:05:45;5.73;;;3.80;;
17852;SDS011;9052;53.494;14.376;2023-04-12T03:08:12;4.67;;;3.47;;
17852;SDS011;9052;53.494;14.376;2023-04-12T03:10:40;13.70;;;5.33;;
17852;SDS011;9052;53.494;14.376;2023-04-12T03:13:06;11.37;;;4.20;;
17852;SDS011;9052;53.494;14.376;2023-04-12T03:15:33;7.97;;;3.80;;
17852;SDS011;9052;53.494;14.376;2023-04-12T03:17:59;4.63;;;3.90;;
17852;SDS011;9052;53.494;14.376;2023-04-12T03:20:26;10.10;;;4.13;;
17852;SDS011;9052;53.494;14.376;2023-04-12T03:22:52;5.17;;;3.50;;
17852;SDS011;9052;53.494;14.376;2023-04-12T03:25:19;6.33;;;4.00;;
17852;SDS011;9052;53.494;14.376;2023-04-12T03:27:47;4.77;;;4.27;;
17852;SDS011;9052;53.494;14.376;2023-04-12T03:30:13;4.50;;;3.80;;
17852;SDS011;9052;53.494;14.376;2023-04-12T03:32:40;4.90;;;4.40;;
17852;SDS011;9052;53.494;14.376;2023-04-12T03:35:07;6.83;;;5.40;;
17852;SDS011;9052;53.494;14.376;2023-04-12T03:37:34;19.03;;;4.70;;
17852;SDS011;9052;53.494;14.376;2023-04-12T03:40:00;8.50;;;4.90;;
17852;SDS011;9052;53.494;14.376;2023-04-12T03:42:27;11.23;;;5.83;;
17852;SDS011;9052;53.494;14.376;2023-04-12T03:44:55;8.00;;;4.60;;
17852;SDS011;9052;53.494;14.376;2023-04-12T03:47:21;6.17;;;4.83;;
17852;SDS011;9052;53.494;14.376;2023-04-12T03:49:48;16.80;;;6.27;;
17852;SDS011;9052;53.494;14.376;2023-04-12T03:52:14;5.53;;;4.70;;
17852;SDS011;9052;53.494;14.376;2023-04-12T03:54:41;13.70;;;6.67;;
17852;SDS011;9052;53.494;14.376;2023-04-12T03:57:07;10.60;;;5.20;;
17852;SDS011;9052;53.494;14.376;2023-04-12T03:59:34;9.73;;;4.83;;
17852;SDS011;9052;53.494;14.376;2023-04-12T04:02:02;9.03;;;5.60;;
17852;SDS011;9052;53.494;14.376;2023-04-12T04:04:29;5.20;;;4.77;;
17852;SDS011;9052;53.494;14.376;2023-04-12T04:06:55;7.87;;;5.60;;
17852;SDS011;9052;53.494;14.376;2023-04-12T04:09:22;7.77;;;5.47;;
17852;SDS011;9052;53.494;14.376;2023-04-12T04:11:48;6.43;;;5.77;;
17852;SDS011;9052;53.494;14.376;2023-04-12T04:14:15;8.40;;;5.40;;
17852;SDS011;9052;53.494;14.376;2023-04-12T04:16:42;12.23;;;5.23;;
17852;SDS011;9052;53.494;14.376;2023-04-12T04:19:09;5.33;;;4.63;;
17852;SDS011;9052;53.494;14.376;2023-04-12T04:21:36;16.20;;;5.50;;
17852;SDS011;9052;53.494;14.376;2023-04-12T04:24:04;7.83;;;6.47;;
17852;SDS011;9052;53.494;14.376;2023-04-12T04:26:34;12.20;;;6.17;;
17852;SDS011;9052;53.494;14.376;2023-04-12T04:29:02;11.80;;;7.20;;
17852;SDS011;9052;53.494;14.376;2023-04-12T04:31:29;7.90;;;5.63;;
17852;SDS011;9052;53.494;14.376;2023-04-12T04:33:58;8.33;;;5.30;;
17852;SDS011;9052;53.494;14.376;2023-04-12T04:36:27;19.73;;;7.10;;
17852;SDS011;9052;53.494;14.376;2023-04-12T04:38:54;8.27;;;6.30;;
17852;SDS011;9052;53.494;14.376;2023-04-12T04:41:21;12.20;;;5.67;;
17852;SDS011;9052;53.494;14.376;2023-04-12T04:43:48;8.10;;;6.90;;
17852;SDS011;9052;53.494;14.376;2023-04-12T04:46:14;15.67;;;6.93;;
17852;SDS011;9052;53.494;14.376;2023-04-12T04:48:41;39.73;;;7.63;;
17852;SDS011;9052;53.494;14.376;2023-04-12T04:51:07;15.50;;;7.30;;
17852;SDS011;9052;53.494;14.376;2023-04-12T04:53:35;7.73;;;6.40;;
17852;SDS011;9052;53.494;14.376;2023-04-12T04:56:02;15.10;;;8.37;;
17852;SDS011;9052;53.494;14.376;2023-04-12T04:58:29;10.23;;;7.13;;
17852;SDS011;9052;53.494;14.376;2023-04-12T05:00:55;13.97;;;7.70;;
17852;SDS011;9052;53.494;14.376;2023-04-12T05:03:23;8.10;;;7.30;;
17852;SDS011;9052;53.494;14.376;2023-04-12T05:05:52;12.83;;;6.77;;
17852;SDS011;9052;53.494;14.376;2023-04-12T05:08:18;12.77;;;7.20;;
17852;SDS011;9052;53.494;14.376;2023-04-12T05:10:48;13.73;;;6.77;;
17852;SDS011;9052;53.494;14.376;2023-04-12T05:13:15;9.57;;;7.23;;
17852;SDS011;9052;53.494;14.376;2023-04-12T05:15:41;17.13;;;6.30;;
17852;SDS011;9052;53.494;14.376;2023-04-12T05:18:08;10.77;;;5.20;;
17852;SDS011;9052;53.494;14.376;2023-04-12T05:20:36;6.80;;;4.80;;
17852;SDS011;9052;53.494;14.376;2023-04-12T05:23:02;5.03;;;4.10;;
17852;SDS011;9052;53.494;14.376;2023-04-12T05:25:29;12.53;;;4.83;;
17852;SDS011;9052;53.494;14.376;2023-04-12T05:27:56;6.07;;;3.53;;
17852;SDS011;9052;53.494;14.376;2023-04-12T05:30:23;8.17;;;3.70;;
17852;SDS011;9052;53.494;14.376;2023-04-12T05:32:53;9.70;;;3.67;;
17852;SDS011;9052;53.494;14.376;2023-04-12T05:35:19;5.70;;;3.67;;
17852;SDS011;9052;53.494;14.376;2023-04-12T05:37:46;7.43;;;3.73;;
17852;SDS011;9052;53.494;14.376;2023-04-12T05:40:13;5.27;;;3.10;;
17852;SDS011;9052;53.494;14.376;2023-04-12T05:42:39;11.40;;;2.93;;
17852;SDS011;9052;53.494;14.376;2023-04-12T05:45:08;4.80;;;2.90;;
17852;SDS011;9052;53.494;14.376;2023-04-12T05:47:35;6.30;;;2.83;;
17852;SDS011;9052;53.494;14.376;2023-04-12T05:50:01;4.00;;;2.90;;
17852;SDS011;9052;53.494;14.376;2023-04-12T05:52:28;7.87;;;3.10;;
17852;SDS011;9052;53.494;14.376;2023-04-12T05:54:54;9.43;;;2.70;;
17852;SDS011;9052;53.494;14.376;2023-04-12T05:57:21;10.30;;;4.10;;
17852;SDS011;9052;53.494;14.376;2023-04-12T05:59:47;6.93;;;3.10;;
17852;SDS011;9052;53.494;14.376;2023-04-12T06:02:15;4.73;;;2.63;;
17852;SDS011;9052;53.494;14.376;2023-04-12T06:04:42;6.00;;;2.60;;
17852;SDS011;9052;53.494;14.376;2023-04-12T06:07:09;8.87;;;3.30;;
17852;SDS011;9052;53.494;14.376;2023-04-12T06:09:35;3.90;;;3.10;;
17852;SDS011;9052;53.494;14.376;2023-04-12T06:12:02;5.43;;;3.20;;
17852;SDS011;9052;53.494;14.376;2023-04-12T06:14:28;10.93;;;3.30;;
17852;SDS011;9052;53.494;14.376;2023-04-12T06:16:55;5.50;;;3.10;;
17852;SDS011;9052;53.494;14.376;2023-04-12T06:19:23;2.80;;;2.50;;
17852;SDS011;9052;53.494;14.376;2023-04-12T06:21:50;2.80;;;2.43;;
17852;SDS011;9052;53.494;14.376;2023-04-12T06:24:16;7.37;;;3.73;;
17852;SDS011;9052;53.494;14.376;2023-04-12T06:26:42;7.33;;;3.73;;
17852;SDS011;9052;53.494;14.376;2023-04-12T06:29:11;11.37;;;3.40;;
17852;SDS011;9052;53.494;14.376;2023-04-12T06:31:37;4.40;;;3.07;;
17852;SDS011;9052;53.494;14.376;2023-04-12T06:34:03;8.80;;;3.57;;
17852;SDS011;9052;53.494;14.376;2023-04-12T06:36:31;4.60;;;3.10;;
17852;SDS011;9052;53.494;14.376;2023-04-12T06:38:58;13.03;;;3.40;;
17852;SDS011;9052;53.494;14.376;2023-04-12T06:41:24;8.10;;;4.30;;
17852;SDS011;9052;53.494;14.376;2023-04-12T06:43:50;3.63;;;3.33;;
17852;SDS011;9052;53.494;14.376;2023-04-12T06:46:24;5.53;;;3.60;;
17852;SDS011;9052;53.494;14.376;2023-04-12T06:48:50;3.03;;;2.80;;
17852;SDS011;9052;53.494;14.376;2023-04-12T06:51:17;15.53;;;3.67;;
17852;SDS011;9052;53.494;14.376;2023-04-12T06:53:44;6.37;;;2.97;;
17852;SDS011;9052;53.494;14.376;2023-04-12T06:56:11;6.77;;;3.73;;
17852;SDS011;9052;53.494;14.376;2023-04-12T06:58:37;11.93;;;3.17;;
17852;SDS011;9052;53.494;14.376;2023-04-12T07:01:04;4.80;;;3.00;;
17852;SDS011;9052;53.494;14.376;2023-04-12T07:03:31;10.73;;;3.93;;
17852;SDS011;9052;53.494;14.376;2023-04-12T07:05:57;6.77;;;3.73;;
17852;SDS011;9052;53.494;14.376;2023-04-12T07:08:26;7.83;;;2.90;;
17852;SDS011;9052;53.494;14.376;2023-04-12T07:10:54;14.60;;;4.00;;
17852;SDS011;9052;53.494;14.376;2023-04-12T07:13:20;5.67;;;3.07;;
17852;SDS011;9052;53.494;14.376;2023-04-12T07:15:47;4.13;;;2.80;;
17852;SDS011;9052;53.494;14.376;2023-04-12T07:18:14;7.70;;;2.93;;
17852;SDS011;9052;53.494;14.376;2023-04-12T07:20:41;9.00;;;3.90;;
17852;SDS011;9052;53.494;14.376;2023-04-12T07:23:07;6.10;;;2.77;;
17852;SDS011;9052;53.494;14.376;2023-04-12T07:25:35;7.97;;;2.73;;
17852;SDS011;9052;53.494;14.376;2023-04-12T07:28:03;13.73;;;4.10;;
17852;SDS011;9052;53.494;14.376;2023-04-12T07:30:30;7.30;;;3.43;;
17852;SDS011;9052;53.494;14.376;2023-04-12T07:32:56;9.90;;;3.50;;
17852;SDS011;9052;53.494;14.376;2023-04-12T07:35:25;25.17;;;4.20;;
17852;SDS011;9052;53.494;14.376;2023-04-12T07:37:52;15.13;;;3.27;;
17852;SDS011;9052;53.494;14.376;2023-04-12T07:40:19;6.60;;;3.23;;
17852;SDS011;9052;53.494;14.376;2023-04-12T07:42:46;14.03;;;3.87;;
17852;SDS011;9052;53.494;14.376;2023-04-12T07:45:13;3.33;;;2.97;;
17852;SDS011;9052;53.494;14.376;2023-04-12T07:47:40;9.00;;;3.10;;
17852;SDS011;9052;53.494;14.376;2023-04-12T07:50:07;9.20;;;2.80;;
17852;SDS011;9052;53.494;14.376;2023-04-12T07:52:33;3.73;;;3.40;;
17852;SDS011;9052;53.494;14.376;2023-04-12T07:55:00;12.13;;;3.50;;
17852;SDS011;9052;53.494;14.376;2023-04-12T07:57:26;6.50;;;3.00;;
17852;SDS011;9052;53.494;14.376;2023-04-12T07:59:52;8.20;;;3.20;;
17852;SDS011;9052;53.494;14.376;2023-04-12T08:02:22;4.90;;;2.80;;
17852;SDS011;9052;53.494;14.376;2023-04-12T08:04:50;10.93;;;3.60;;
17852;SDS011;9052;53.494;14.376;2023-04-12T08:07:16;8.80;;;3.90;;
17852;SDS011;9052;53.494;14.376;2023-04-12T08:09:43;5.40;;;2.30;;
17852;SDS011;9052;53.494;14.376;2023-04-12T08:12:09;6.37;;;2.40;;
17852;SDS011;9052;53.494;14.376;2023-04-12T08:14:36;6.70;;;2.90;;
17852;SDS011;9052;53.494;14.376;2023-04-12T08:17:02;6.60;;;2.50;;
17852;SDS011;9052;53.494;14.376;2023-04-12T08:19:30;8.40;;;2.90;;
17852;SDS011;9052;53.494;14.376;2023-04-12T08:21:56;20.83;;;4.10;;
17852;SDS011;9052;53.494;14.376;2023-04-12T08:24:23;7.90;;;2.93;;
17852;SDS011;9052;53.494;14.376;2023-04-12T08:26:49;12.50;;;3.80;;
17852;SDS011;9052;53.494;14.376;2023-04-12T08:29:16;5.00;;;2.13;;
17852;SDS011;9052;53.494;14.376;2023-04-12T08:31:43;5.50;;;2.03;;
17852;SDS011;9052;53.494;14.376;2023-04-12T08:34:10;2.27;;;2.03;;
17852;SDS011;9052;53.494;14.376;2023-04-12T08:36:38;4.30;;;1.77;;
17852;SDS011;9052;53.494;14.376;2023-04-12T08:39:04;7.33;;;2.87;;
17852;SDS011;9052;53.494;14.376;2023-04-12T08:41:31;10.63;;;3.47;;
17852;SDS011;9052;53.494;14.376;2023-04-12T08:43:58;6.33;;;2.67;;
17852;SDS011;9052;53.494;14.376;2023-04-12T08:46:25;7.23;;;2.90;;
17852;SDS011;9052;53.494;14.376;2023-04-12T08:48:52;8.07;;;3.03;;
17852;SDS011;9052;53.494;14.376;2023-04-12T08:51:21;4.70;;;2.67;;
17852;SDS011;9052;53.494;14.376;2023-04-12T08:53:49;7.83;;;2.93;;
17852;SDS011;9052;53.494;14.376;2023-04-12T08:56:18;13.73;;;4.20;;
17852;SDS011;9052;53.494;14.376;2023-04-12T08:58:46;2.70;;;2.20;;
17852;SDS011;9052;53.494;14.376;2023-04-12T09:01:14;8.97;;;2.60;;
17852;SDS011;9052;53.494;14.376;2023-04-12T09:03:40;11.27;;;3.33;;
17852;SDS011;9052;53.494;14.376;2023-04-12T09:06:07;5.00;;;1.83;;
17852;SDS011;9052;53.494;14.376;2023-04-12T09:08:34;3.03;;;1.70;;
17852;SDS011;9052;53.494;14.376;2023-04-12T09:11:02;3.27;;;1.60;;
17852;SDS011;9052;53.494;14.376;2023-04-12T09:13:46;3.13;;;1.80;;
17852;SDS011;9052;53.494;14.376;2023-04-12T09:16:12;3.47;;;2.00;;
17852;SDS011;9052;53.494;14.376;2023-04-12T09:18:46;3.63;;;1.30;;
17852;SDS011;9052;53.494;14.376;2023-04-12T09:21:13;19.73;;;2.13;;
17852;SDS011;9052;53.494;14.376;2023-04-12T09:23:39;8.93;;;2.00;;
17852;SDS011;9052;53.494;14.376;2023-04-12T09:26:07;3.00;;;1.70;;
17852;SDS011;9052;53.494;14.376;2023-04-12T09:28:34;2.77;;;1.33;;
17852;SDS011;9052;53.494;14.376;2023-04-12T09:31:03;6.90;;;1.33;;
17852;SDS011;9052;53.494;14.376;2023-04-12T09:33:33;3.67;;;1.97;;
17852;SDS011;9052;53.494;14.376;2023-04-12T09:36:00;6.10;;;1.30;;
17852;SDS011;9052;53.494;14.376;2023-04-12T09:38:27;9.80;;;1.70;;
17852;SDS011;9052;53.494;14.376;2023-04-12T09:40:54;5.57;;;1.43;;
17852;SDS011;9052;53.494;14.376;2023-04-12T09:43:35;7.07;;;2.70;;
17852;SDS011;9052;53.494;14.376;2023-04-12T09:46:07;7.40;;;2.10;;
17852;SDS011;9052;53.494;14.376;2023-04-12T09:48:35;6.37;;;2.40;;
17852;SDS011;9052;53.494;14.376;2023-04-12T09:51:02;5.33;;;2.30;;
17852;SDS011;9052;53.494;14.376;2023-04-12T09:53:30;5.60;;;1.90;;
17852;SDS011;9052;53.494;14.376;2023-04-12T09:55:58;4.00;;;1.80;;
17852;SDS011;9052;53.494;14.376;2023-04-12T09:58:25;4.83;;;1.80;;
17852;SDS011;9052;53.494;14.376;2023-04-12T10:00:53;1.37;;;1.27;;
17852;SDS011;9052;53.494;14.376;2023-04-12T10:03:21;2.67;;;1.40;;
17852;SDS011;9052;53.494;14.376;2023-04-12T10:05:48;2.70;;;1.73;;
17852;SDS011;9052;53.494;14.376;2023-04-12T10:08:14;3.17;;;1.97;;
17852;SDS011;9052;53.494;14.376;2023-04-12T10:10:43;3.07;;;1.57;;
17852;SDS011;9052;53.494;14.376;2023-04-12T10:13:09;3.33;;;1.33;;
17852;SDS011;9052;53.494;14.376;2023-04-12T10:15:38;5.60;;;1.83;;
17852;SDS011;9052;53.494;14.376;2023-04-12T10:18:06;4.43;;;2.00;;
17852;SDS011;9052;53.494;14.376;2023-04-12T10:20:32;6.00;;;2.07;;
17852;SDS011;9052;53.494;14.376;2023-04-12T10:22:59;4.67;;;1.57;;
17852;SDS011;9052;53.494;14.376;2023-04-12T10:25:26;7.27;;;1.90;;
17852;SDS011;9052;53.494;14.376;2023-04-12T10:27:55;5.00;;;1.33;;
17852;SDS011;9052;53.494;14.376;2023-04-12T10:30:21;1.87;;;1.30;;
17852;SDS011;9052;53.494;14.376;2023-04-12T10:32:48;3.57;;;1.40;;
17852;SDS011;9052;53.494;14.376;2023-04-12T10:35:17;2.07;;;1.40;;
17852;SDS011;9052;53.494;14.376;2023-04-12T10:37:56;4.50;;;1.73;;
17852;SDS011;9052;53.494;14.376;2023-04-12T10:40:23;3.10;;;1.67;;
17852;SDS011;9052;53.494;14.376;2023-04-12T10:42:54;7.10;;;2.10;;
17852;SDS011;9052;53.494;14.376;2023-04-12T10:45:40;2.30;;;1.30;;
17852;SDS011;9052;53.494;14.376;2023-04-12T10:48:07;3.50;;;2.37;;
17852;SDS011;9052;53.494;14.376;2023-04-12T10:50:35;6.67;;;1.77;;
17852;SDS011;9052;53.494;14.376;2023-04-12T10:53:19;5.90;;;1.70;;
17852;SDS011;9052;53.494;14.376;2023-04-12T10:55:45;7.17;;;1.40;;
17852;SDS011;9052;53.494;14.376;2023-04-12T10:58:53;5.20;;;1.60;;
17852;SDS011;9052;53.494;14.376;2023-04-12T11:01:10;3.67;;;1.53;;
17852;SDS011;9052;53.494;14.376;2023-04-12T11:03:36;9.37;;;2.23;;
17852;SDS011;9052;53.494;14.376;2023-04-12T11:09:06;4.20;;;1.93;;
17852;SDS011;9052;53.494;14.376;2023-04-12T11:11:41;3.37;;;1.50;;
17852;SDS011;9052;53.494;14.376;2023-04-12T11:14:09;3.33;;;1.40;;
17852;SDS011;9052;53.494;14.376;2023-04-12T11:19:16;2.07;;;1.27;;
17852;SDS011;9052;53.494;14.376;2023-04-12T11:21:43;4.63;;;2.00;;
17852;SDS011;9052;53.494;14.376;2023-04-12T11:24:11;4.73;;;1.80;;
17852;SDS011;9052;53.494;14.376;2023-04-12T11:26:39;4.70;;;1.70;;
17852;SDS011;9052;53.494;14.376;2023-04-12T11:29:06;3.20;;;1.90;;
17852;SDS011;9052;53.494;14.376;2023-04-12T11:31:32;7.30;;;2.17;;
17852;SDS011;9052;53.494;14.376;2023-04-12T11:33:59;2.13;;;1.80;;
17852;SDS011;9052;53.494;14.376;2023-04-12T11:36:25;4.93;;;2.10;;
17852;SDS011;9052;53.494;14.376;2023-04-12T11:38:53;4.50;;;2.40;;
17852;SDS011;9052;53.494;14.376;2023-04-12T11:41:22;4.47;;;1.80;;
17852;SDS011;9052;53.494;14.376;2023-04-12T11:43:48;5.50;;;2.00;;
17852;SDS011;9052;53.494;14.376;2023-04-12T11:46:15;6.13;;;1.83;;
17852;SDS011;9052;53.494;14.376;2023-04-12T11:48:43;2.60;;;1.33;;
17852;SDS011;9052;53.494;14.376;2023-04-12T11:51:19;3.07;;;2.07;;
17852;SDS011;9052;53.494;14.376;2023-04-12T11:53:51;2.60;;;1.60;;
17852;SDS011;9052;53.494;14.376;2023-04-12T11:56:17;4.97;;;1.77;;
17852;SDS011;9052;53.494;14.376;2023-04-12T11:58:46;6.97;;;1.90;;
17852;SDS011;9052;53.494;14.376;2023-04-12T12:01:13;3.20;;;1.80;;
17852;SDS011;9052;53.494;14.376;2023-04-12T12:03:39;2.97;;;1.63;;
17852;SDS011;9052;53.494;14.376;2023-04-12T12:06:06;4.77;;;1.33;;
17852;SDS011;9052;53.494;14.376;2023-04-12T12:08:32;1.73;;;1.20;;
17852;SDS011;9052;53.494;14.376;2023-04-12T12:10:59;4.23;;;1.40;;
17852;SDS011;9052;53.494;14.376;2023-04-12T12:13:26;3.60;;;2.67;;
17852;SDS011;9052;53.494;14.376;2023-04-12T12:15:55;2.40;;;1.60;;
17852;SDS011;9052;53.494;14.376;2023-04-12T12:18:24;5.93;;;1.77;;
17852;SDS011;9052;53.494;14.376;2023-04-12T12:20:51;4.80;;;2.00;;
17852;SDS011;9052;53.494;14.376;2023-04-12T12:23:26;8.40;;;6.93;;
17852;SDS011;9052;53.494;14.376;2023-04-12T12:25:55;1.93;;;1.00;;
17852;SDS011;9052;53.494;14.376;2023-04-12T12:28:22;2.60;;;0.90;;
17852;SDS011;9052;53.494;14.376;2023-04-12T12:30:51;9.10;;;5.33;;
17852;SDS011;9052;53.494;14.376;2023-04-12T12:33:19;3.00;;;1.43;;
17852;SDS011;9052;53.494;14.376;2023-04-12T12:35:46;6.17;;;5.60;;
17852;SDS011;9052;53.494;14.376;2023-04-12T12:38:12;4.47;;;1.97;;
17852;SDS011;9052;53.494;14.376;2023-04-12T12:40:39;4.20;;;1.00;;
17852;SDS011;9052;53.494;14.376;2023-04-12T12:43:06;8.90;;;4.07;;
17852;SDS011;9052;53.494;14.376;2023-04-12T12:45:33;2.20;;;1.23;;
17852;SDS011;9052;53.494;14.376;2023-04-12T12:48:01;3.80;;;1.20;;
17852;SDS011;9052;53.494;14.376;2023-04-12T12:50:29;1.43;;;0.93;;
17852;SDS011;9052;53.494;14.376;2023-04-12T12:52:56;4.37;;;1.67;;
17852;SDS011;9052;53.494;14.376;2023-04-12T12:55:24;1.70;;;1.30;;
17852;SDS011;9052;53.494;14.376;2023-04-12T12:57:51;6.03;;;1.70;;
17852;SDS011;9052;53.494;14.376;2023-04-12T13:00:18;6.10;;;1.10;;
17852;SDS011;9052;53.494;14.376;2023-04-12T13:02:45;2.80;;;1.50;;
17852;SDS011;9052;53.494;14.376;2023-04-12T13:05:12;4.60;;;2.00;;
17852;SDS011;9052;53.494;14.376;2023-04-12T13:07:40;3.47;;;1.47;;
17852;SDS011;9052;53.494;14.376;2023-04-12T13:10:08;4.87;;;1.23;;
17852;SDS011;9052;53.494;14.376;2023-04-12T13:12:35;3.03;;;1.50;;
17852;SDS011;9052;53.494;14.376;2023-04-12T13:15:01;2.50;;;0.93;;
17852;SDS011;9052;53.494;14.376;2023-04-12T13:17:28;3.00;;;1.10;;
17852;SDS011;9052;53.494;14.376;2023-04-12T13:19:55;7.13;;;1.23;;
17852;SDS011;9052;53.494;14.376;2023-04-12T13:22:21;2.13;;;1.20;;
17852;SDS011;9052;53.494;14.376;2023-04-12T13:24:49;4.17;;;1.73;;
17852;SDS011;9052;53.494;14.376;2023-04-12T13:27:16;8.23;;;1.83;;
17852;SDS011;9052;53.494;14.376;2023-04-12T13:29:42;1.47;;;0.83;;
17852;SDS011;9052;53.494;14.376;2023-04-12T13:32:09;1.30;;;0.90;;
17852;SDS011;9052;53.494;14.376;2023-04-12T13:34:37;4.30;;;1.30;;
17852;SDS011;9052;53.494;14.376;2023-04-12T13:37:03;1.60;;;1.10;;
17852;SDS011;9052;53.494;14.376;2023-04-12T13:39:30;3.53;;;1.23;;
17852;SDS011;9052;53.494;14.376;2023-04-12T13:41:59;2.83;;;1.60;;
17852;SDS011;9052;53.494;14.376;2023-04-12T13:44:27;3.70;;;0.90;;
17852;SDS011;9052;53.494;14.376;2023-04-12T13:46:53;5.33;;;1.50;;
17852;SDS011;9052;53.494;14.376;2023-04-12T13:49:20;1.60;;;1.10;;
17852;SDS011;9052;53.494;14.376;2023-04-12T13:51:47;4.63;;;1.33;;
17852;SDS011;9052;53.494;14.376;2023-04-12T13:54:13;1.00;;;0.80;;
17852;SDS011;9052;53.494;14.376;2023-04-12T13:56:41;1.10;;;1.00;;
17852;SDS011;9052;53.494;14.376;2023-04-12T13:59:09;2.77;;;1.27;;
17852;SDS011;9052;53.494;14.376;2023-04-12T14:01:36;4.47;;;1.77;;
17852;SDS011;9052;53.494;14.376;2023-04-12T14:04:03;1.20;;;0.90;;
17852;SDS011;9052;53.494;14.376;2023-04-12T14:06:30;4.33;;;1.73;;
17852;SDS011;9052;53.494;14.376;2023-04-12T14:08:56;3.17;;;1.03;;
17852;SDS011;9052;53.494;14.376;2023-04-12T14:11:23;10.30;;;2.43;;
17852;SDS011;9052;53.494;14.376;2023-04-12T14:13:50;4.10;;;1.30;;
17852;SDS011;9052;53.494;14.376;2023-04-12T14:16:17;4.60;;;1.27;;
17852;SDS011;9052;53.494;14.376;2023-04-12T14:18:44;3.87;;;1.00;;
17852;SDS011;9052;53.494;14.376;2023-04-12T14:21:10;6.63;;;1.20;;
17852;SDS011;9052;53.494;14.376;2023-04-12T14:23:37;4.40;;;1.33;;
17852;SDS011;9052;53.494;14.376;2023-04-12T14:26:05;4.23;;;1.60;;
17852;SDS011;9052;53.494;14.376;2023-04-12T14:28:31;1.80;;;1.10;;
17852;SDS011;9052;53.494;14.376;2023-04-12T14:31:00;6.30;;;1.40;;
17852;SDS011;9052;53.494;14.376;2023-04-12T14:33:28;3.20;;;1.80;;
17852;SDS011;9052;53.494;14.376;2023-04-12T14:35:54;5.97;;;1.53;;
17852;SDS011;9052;53.494;14.376;2023-04-12T14:38:21;3.10;;;1.23;;
17852;SDS011;9052;53.494;14.376;2023-04-12T14:40:48;1.20;;;1.10;;
17852;SDS011;9052;53.494;14.376;2023-04-12T14:43:15;1.70;;;1.23;;
17852;SDS011;9052;53.494;14.376;2023-04-12T14:45:42;5.90;;;1.50;;
17852;SDS011;9052;53.494;14.376;2023-04-12T14:48:08;1.67;;;1.10;;
17852;SDS011;9052;53.494;14.376;2023-04-12T14:50:36;2.10;;;1.10;;
17852;SDS011;9052;53.494;14.376;2023-04-12T14:53:03;3.03;;;1.50;;